createdAt,value
2023-05-25T00:02:14.782Z,8.70
2023-05-25T00:05:17.746Z,9.70
2023-05-25T00:08:19.449Z,9.60
2023-05-25T00:11:22.792Z,7.90
2023-05-25T00:14:24.899Z,8.50
2023-05-25T00:17:31.355Z,9.50
2023-05-25T00:20:34.025Z,8.50
2023-05-25T00:23:35.969Z,8.30
2023-05-25T00:26:37.714Z,8.40
2023-05-25T00:29:39.438Z,9.40
2023-05-25T00:32:42.958Z,8.70
2023-05-25T00:35:46.111Z,10.00
2023-05-25T00:38:50.194Z,9.80
2023-05-25T00:41:53.110Z,7.60
2023-05-25T00:44:54.881Z,9.10
2023-05-25T00:47:58.397Z,11.30
2023-05-25T00:51:00.366Z,13.20
2023-05-25T00:54:02.162Z,11.50
2023-05-25T00:57:06.768Z,7.80
2023-05-25T01:00:10.894Z,10.10
2023-05-25T01:03:17.092Z,11.20
2023-05-25T01:06:26.384Z,8.70
2023-05-25T01:09:30.717Z,7.70
2023-05-25T01:12:37.314Z,10.00
2023-05-25T01:15:40.102Z,6.80
2023-05-25T01:18:42.280Z,8.90
2023-05-25T01:21:53.938Z,10.10
2023-05-25T01:25:01.644Z,9.20
2023-05-25T01:28:08.829Z,10.80
2023-05-25T01:31:13.652Z,10.70
2023-05-25T01:34:16.774Z,10.00
2023-05-25T01:40:21.478Z,9.40
2023-05-25T01:43:23.351Z,10.30
2023-05-25T01:46:31.135Z,10.30
2023-05-25T01:49:59.081Z,10.60
2023-05-25T01:53:08.994Z,10.80
2023-05-25T01:56:13.870Z,8.90
2023-05-25T01:59:19.918Z,10.30
2023-05-25T02:02:22.656Z,11.30
2023-05-25T02:05:27.272Z,10.10
2023-05-25T02:08:29.110Z,9.90
2023-05-25T02:11:30.942Z,10.30
2023-05-25T02:17:36.516Z,10.30
2023-05-25T02:20:38.390Z,9.40
2023-05-25T02:23:40.184Z,11.70
2023-05-25T02:26:41.991Z,10.90
2023-05-25T02:29:44.932Z,8.60
2023-05-25T02:32:46.710Z,11.50
2023-05-25T02:35:48.908Z,10.20
2023-05-25T02:38:51.557Z,11.00
2023-05-25T02:41:53.761Z,10.90
2023-05-25T02:44:55.507Z,11.70
2023-05-25T02:47:57.368Z,12.40
2023-05-25T02:54:01.344Z,12.20
2023-05-25T02:57:04.385Z,13.70
2023-05-25T03:00:06.942Z,12.40
2023-05-25T03:03:09.347Z,14.30
2023-05-25T03:06:12.473Z,12.60
2023-05-25T03:09:14.674Z,10.20
2023-05-25T03:12:16.431Z,11.40
2023-05-25T03:15:18.428Z,11.60
2023-05-25T03:18:20.177Z,12.40
2023-05-25T03:21:23.149Z,11.60
2023-05-25T03:24:26.130Z,12.70
2023-05-25T03:27:28.976Z,12.70
2023-05-25T03:30:31.284Z,13.30
2023-05-25T03:33:33.551Z,13.50
2023-05-25T03:36:36.873Z,10.30
2023-05-25T03:39:38.679Z,12.40
2023-05-25T03:42:40.580Z,13.20
2023-05-25T03:45:42.697Z,10.40
2023-05-25T03:48:45.506Z,13.60
2023-05-25T03:51:47.365Z,11.10
2023-05-25T03:54:49.236Z,13.00
2023-05-25T03:57:51.113Z,11.90
2023-05-25T04:00:54.354Z,11.20
2023-05-25T04:03:57.886Z,12.40
2023-05-25T04:06:59.755Z,10.30
2023-05-25T04:10:01.533Z,11.40
2023-05-25T04:13:03.323Z,14.10
2023-05-25T04:16:07.369Z,11.10
2023-05-25T04:19:10.134Z,11.70
2023-05-25T04:22:12.087Z,9.30
2023-05-25T04:25:14.233Z,10.40
2023-05-25T04:28:17.395Z,9.60
2023-05-25T04:31:27.506Z,8.80
2023-05-25T04:34:47.805Z,10.10
2023-05-25T04:37:57.030Z,10.40
2023-05-25T04:41:01.355Z,13.80
2023-05-25T04:44:08.949Z,11.80
2023-05-25T04:47:21.663Z,13.40
2023-05-25T04:50:23.588Z,14.60
2023-05-25T04:53:26.266Z,11.10
2023-05-25T04:56:27.951Z,14.10
2023-05-25T04:59:29.635Z,11.90
2023-05-25T05:02:32.369Z,12.80
2023-05-25T05:05:36.058Z,12.60
2023-05-25T05:08:39.200Z,12.90
2023-05-25T05:11:41.150Z,13.80
2023-05-25T05:14:43.312Z,12.40
2023-05-25T05:17:45.944Z,13.80
2023-05-25T05:20:48.740Z,13.70
2023-05-25T05:23:51.424Z,14.70
2023-05-25T05:26:57.481Z,14.80
2023-05-25T05:30:08.955Z,13.20
2023-05-25T05:36:19.323Z,14.70
2023-05-25T05:39:21.129Z,14.00
2023-05-25T05:42:23.464Z,13.80
2023-05-25T05:45:25.234Z,13.80
2023-05-25T05:48:26.983Z,13.90
2023-05-25T05:51:29.353Z,13.70
2023-05-25T05:57:38.881Z,12.40
2023-05-25T06:03:45.303Z,13.10
2023-05-25T06:06:47.200Z,14.10
2023-05-25T06:09:49.115Z,12.90
2023-05-25T06:12:51.976Z,15.80
2023-05-25T06:15:53.795Z,12.30
2023-05-25T06:18:58.149Z,13.80
2023-05-25T06:21:59.926Z,13.60
2023-05-25T06:25:01.799Z,15.90
2023-05-25T06:28:03.877Z,18.70
2023-05-25T06:31:05.616Z,14.50
2023-05-25T06:34:07.531Z,15.20
2023-05-25T06:37:09.240Z,16.70
2023-05-25T06:40:11.463Z,15.20
2023-05-25T06:43:13.275Z,15.30
2023-05-25T06:46:31.155Z,13.60
2023-05-25T06:49:33.244Z,15.30
2023-05-25T06:52:35.247Z,15.40
2023-05-25T06:55:37.155Z,15.90
2023-05-25T06:58:38.996Z,16.30
2023-05-25T07:01:40.988Z,19.40
2023-05-25T07:04:43.049Z,22.00
2023-05-25T07:07:45.115Z,16.00
2023-05-25T07:10:49.247Z,16.90
2023-05-25T07:13:51.865Z,14.60
2023-05-25T07:16:53.677Z,15.10
2023-05-25T07:19:55.577Z,15.10
2023-05-25T07:22:57.523Z,22.00
2023-05-25T07:25:59.345Z,18.20
2023-05-25T07:29:01.599Z,15.90
2023-05-25T07:35:05.673Z,14.20
2023-05-25T07:41:09.254Z,15.90
2023-05-25T07:47:13.532Z,17.00
2023-05-25T07:50:16.241Z,13.90
2023-05-25T07:56:19.949Z,16.10
2023-05-25T07:59:21.811Z,16.30
2023-05-25T08:02:23.790Z,13.80
2023-05-25T08:05:25.642Z,16.20
2023-05-25T08:08:27.688Z,14.90
2023-05-25T08:11:30.643Z,15.00
2023-05-25T08:14:32.440Z,18.10
2023-05-25T08:17:34.421Z,16.60
2023-05-25T08:20:37.197Z,20.20
2023-05-25T08:23:42.171Z,17.90
2023-05-25T08:29:54.557Z,16.80
2023-05-25T08:32:56.344Z,20.40
2023-05-25T08:35:58.595Z,17.50
2023-05-25T08:42:03.233Z,17.40
2023-05-25T08:45:10.775Z,20.80
2023-05-25T08:48:23.946Z,19.50
2023-05-25T08:51:37.593Z,21.00
2023-05-25T08:54:43.603Z,17.80
2023-05-25T08:58:08.595Z,21.10
2023-05-25T09:01:14.837Z,22.50
2023-05-25T09:04:19.201Z,18.20
2023-05-25T09:07:21.768Z,18.10
2023-05-25T09:10:25.798Z,19.40
2023-05-25T09:13:27.909Z,17.20
2023-05-25T09:16:32.256Z,17.90
2023-05-25T09:19:35.958Z,17.30
2023-05-25T09:22:38.172Z,16.90
2023-05-25T09:28:48.364Z,20.00
2023-05-25T09:31:52.069Z,16.90
2023-05-25T09:35:08.557Z,15.70
2023-05-25T09:38:16.086Z,13.90
2023-05-25T09:41:21.356Z,11.10
2023-05-25T09:44:23.127Z,12.00
2023-05-25T09:47:26.083Z,11.20
2023-05-25T09:50:31.976Z,12.10
2023-05-25T09:53:34.464Z,13.50
2023-05-25T09:56:36.398Z,13.70
2023-05-25T09:59:38.401Z,10.40
2023-05-25T10:02:40.980Z,11.90
2023-05-25T10:05:43.204Z,10.90
2023-05-25T10:08:47.190Z,10.20
2023-05-25T10:11:51.121Z,10.90
2023-05-25T10:14:54.566Z,12.30
2023-05-25T10:17:59.303Z,12.20
2023-05-25T10:21:04.406Z,10.40
2023-05-25T10:24:23.964Z,11.60
2023-05-25T10:27:30.848Z,10.60
2023-05-25T10:30:33.247Z,10.00
2023-05-25T10:33:35.402Z,11.00
2023-05-25T10:39:42.132Z,12.30
2023-05-25T10:42:44.974Z,11.10
2023-05-25T10:45:47.740Z,12.80
2023-05-25T10:48:51.352Z,13.00
2023-05-25T10:51:58.106Z,11.20
2023-05-25T10:55:03.604Z,9.80
2023-05-25T10:58:10.225Z,11.90
2023-05-25T11:01:14.754Z,12.30
2023-05-25T11:04:16.723Z,9.70
2023-05-25T11:07:21.350Z,14.30
2023-05-25T11:10:49.014Z,10.40
2023-05-25T11:13:50.905Z,9.70
2023-05-25T11:17:13.838Z,9.30
2023-05-25T11:20:23.356Z,8.80
2023-05-25T11:23:25.316Z,10.80
2023-05-25T11:26:29.480Z,9.70
2023-05-25T11:29:31.856Z,9.80
2023-05-25T11:32:39.064Z,9.60
2023-05-25T11:35:41.037Z,13.20
2023-05-25T11:38:50.049Z,11.50
2023-05-25T11:42:06.733Z,9.60
2023-05-25T11:45:14.376Z,10.40
2023-05-25T11:48:16.320Z,9.70
2023-05-25T11:51:23.462Z,11.90
2023-05-25T11:54:27.721Z,10.10
2023-05-25T11:57:29.869Z,11.10
2023-05-25T12:00:35.179Z,10.70
2023-05-25T12:06:39.728Z,10.40
2023-05-25T12:09:41.598Z,12.00
2023-05-25T12:12:47.784Z,11.20
2023-05-25T12:15:50.003Z,13.20
2023-05-25T12:21:55.268Z,10.80
2023-05-25T12:24:57.187Z,10.50
2023-05-25T12:28:12.502Z,12.20
2023-05-25T12:31:22.566Z,11.60
2023-05-25T12:34:27.092Z,13.50
2023-05-25T12:37:29.361Z,13.30
2023-05-25T12:43:39.866Z,14.70
2023-05-25T12:46:41.703Z,14.10
2023-05-25T12:49:47.650Z,14.10
2023-05-25T12:52:49.558Z,11.90
2023-05-25T12:56:01.609Z,12.60
2023-05-25T12:59:15.858Z,13.70
2023-05-25T13:02:17.879Z,14.30
2023-05-25T13:05:26.499Z,13.20
2023-05-25T13:08:28.949Z,13.60
2023-05-25T13:11:30.722Z,11.40
2023-05-25T13:14:32.555Z,15.80
2023-05-25T13:17:35.111Z,12.80
2023-05-25T13:20:37.739Z,16.70
2023-05-25T13:23:39.561Z,15.30
2023-05-25T13:26:43.078Z,13.50
2023-05-25T13:29:44.908Z,14.70
2023-05-25T13:32:48.102Z,16.30
2023-05-25T13:35:58.725Z,13.50
2023-05-25T13:39:01.589Z,13.40
2023-05-25T13:42:03.620Z,14.80
2023-05-25T13:45:06.065Z,16.40
2023-05-25T13:48:08.075Z,13.60
2023-05-25T13:51:10.095Z,15.10
2023-05-25T13:54:14.523Z,20.30
2023-05-25T13:57:16.367Z,17.50
2023-05-25T14:00:18.680Z,13.90
2023-05-25T14:03:20.729Z,15.70
2023-05-25T14:09:24.586Z,16.30
2023-05-25T14:12:29.634Z,14.70
2023-05-25T14:15:31.572Z,14.80
2023-05-25T14:18:33.481Z,15.30
2023-05-25T14:21:36.721Z,13.80
2023-05-25T14:24:38.664Z,12.70
2023-05-25T14:27:40.526Z,12.50
2023-05-25T14:30:42.557Z,13.50
2023-05-25T14:33:44.471Z,14.80
2023-05-25T14:36:46.323Z,13.40
2023-05-25T14:39:48.410Z,17.90
2023-05-25T14:42:50.264Z,15.10
2023-05-25T14:45:52.147Z,13.80
2023-05-25T14:48:54.045Z,17.30
2023-05-25T14:51:55.923Z,14.70
2023-05-25T14:54:57.823Z,13.80
2023-05-25T15:01:02.107Z,12.70
2023-05-25T15:07:06.317Z,12.40
2023-05-25T15:10:08.562Z,16.80
2023-05-25T15:16:21.681Z,11.90
2023-05-25T15:19:23.617Z,12.10
2023-05-25T15:22:25.501Z,12.90
2023-05-25T15:28:32.201Z,12.50
2023-05-25T15:31:34.246Z,13.70
2023-05-25T15:34:36.241Z,18.20
2023-05-25T15:37:40.325Z,12.20
2023-05-25T15:40:42.614Z,14.40
2023-05-25T15:43:52.053Z,15.50
2023-05-25T15:46:53.916Z,14.90
2023-05-25T15:49:55.720Z,13.50
2023-05-25T15:52:57.448Z,13.60
2023-05-25T15:55:59.137Z,13.60
2023-05-25T15:59:01.774Z,13.30
2023-05-25T16:02:03.777Z,13.20
2023-05-25T16:05:06.728Z,11.20
2023-05-25T16:08:08.900Z,13.10
2023-05-25T16:14:12.377Z,15.60
2023-05-25T16:17:14.860Z,18.60
2023-05-25T16:20:16.733Z,12.30
2023-05-25T16:23:18.571Z,15.70
2023-05-25T16:26:21.904Z,12.30
2023-05-25T16:29:23.724Z,12.50
2023-05-25T16:32:26.605Z,11.60
2023-05-25T16:35:28.410Z,14.20
2023-05-25T16:38:30.139Z,11.70
2023-05-25T16:41:31.885Z,15.60
2023-05-25T16:44:33.651Z,15.40
2023-05-25T16:47:35.568Z,15.20
2023-05-25T16:50:37.449Z,15.50
2023-05-25T16:53:39.295Z,15.70
2023-05-25T16:56:41.128Z,16.30
2023-05-25T16:59:42.921Z,12.90
2023-05-25T17:02:44.909Z,18.60
2023-05-25T17:05:46.777Z,15.00
2023-05-25T17:08:48.573Z,14.40
2023-05-25T17:11:53.483Z,16.50
2023-05-25T17:14:55.766Z,16.50
2023-05-25T17:17:57.529Z,16.20
2023-05-25T17:20:59.617Z,15.60
2023-05-25T17:24:02.975Z,16.00
2023-05-25T17:27:05.586Z,17.30
2023-05-25T17:30:08.160Z,13.50
2023-05-25T17:33:10.174Z,14.90
2023-05-25T17:36:12.150Z,15.40
2023-05-25T17:39:14.166Z,15.50
2023-05-25T17:42:16.294Z,16.30
2023-05-25T17:45:18.184Z,14.70
2023-05-25T17:48:20.926Z,16.40
2023-05-25T17:51:22.911Z,15.40
2023-05-25T17:54:26.698Z,14.40
2023-05-25T17:57:28.502Z,13.70
2023-05-25T18:00:31.740Z,15.50
2023-05-25T18:03:33.617Z,16.80
2023-05-25T18:06:36.414Z,14.70
2023-05-25T18:09:38.172Z,17.10
2023-05-25T18:12:40.670Z,13.80
2023-05-25T18:15:42.604Z,18.30
2023-05-25T18:18:45.170Z,15.50
2023-05-25T18:21:46.939Z,12.90
2023-05-25T18:24:48.721Z,15.10
2023-05-25T18:27:50.712Z,18.80
2023-05-25T18:30:53.051Z,15.50
2023-05-25T18:33:55.516Z,19.50
2023-05-25T18:36:57.495Z,15.40
2023-05-25T18:39:59.301Z,19.00
2023-05-25T18:43:01.225Z,19.90
2023-05-25T18:46:03.041Z,16.70
2023-05-25T18:49:05.462Z,16.50
2023-05-25T18:52:09.333Z,16.10
2023-05-25T18:55:11.058Z,15.30
2023-05-25T18:58:15.528Z,18.30
2023-05-25T19:01:17.365Z,15.40
2023-05-25T19:04:19.870Z,15.90
2023-05-25T19:07:21.807Z,18.50
2023-05-25T19:10:23.617Z,19.80
2023-05-25T19:13:27.806Z,17.70
2023-05-25T19:16:29.990Z,21.30
2023-05-25T19:19:31.776Z,18.20
2023-05-25T19:22:36.276Z,26.70
2023-05-25T19:25:40.464Z,19.90
2023-05-25T19:28:56.083Z,23.60
2023-05-25T19:31:57.878Z,21.00
2023-05-25T19:34:59.953Z,24.30
2023-05-25T19:38:02.333Z,20.50
2023-05-25T19:41:06.027Z,22.80
2023-05-25T19:44:07.788Z,18.70
2023-05-25T19:47:09.727Z,20.60
2023-05-25T19:50:11.682Z,20.60
2023-05-25T19:53:13.413Z,19.00
2023-05-25T19:56:15.245Z,19.30
2023-05-25T19:59:17.023Z,18.60
2023-05-25T20:02:18.888Z,22.70
2023-05-25T20:05:20.788Z,18.60
2023-05-25T20:08:24.350Z,24.50
2023-05-25T20:11:27.207Z,21.10
2023-05-25T20:14:30.311Z,20.90
2023-05-25T20:17:32.080Z,24.80
2023-05-25T20:20:33.970Z,25.50
2023-05-25T20:23:35.775Z,22.50
2023-05-25T20:26:37.606Z,21.50
2023-05-25T20:29:39.568Z,19.30
2023-05-25T20:32:41.348Z,21.90
2023-05-25T20:35:43.367Z,17.90
2023-05-25T20:38:45.443Z,21.00
2023-05-25T20:41:47.229Z,20.50
2023-05-25T20:44:48.982Z,21.20
2023-05-25T20:48:01.504Z,24.90
2023-05-25T20:51:03.370Z,22.50
2023-05-25T20:54:05.416Z,22.20
2023-05-25T20:57:07.580Z,22.10
2023-05-25T21:00:10.062Z,24.00
2023-05-25T21:03:12.103Z,24.00
2023-05-25T21:06:14.073Z,20.30
2023-05-25T21:09:15.819Z,23.30
2023-05-25T21:12:17.614Z,23.20
2023-05-25T21:15:19.467Z,21.10
2023-05-25T21:18:21.515Z,21.90
2023-05-25T21:21:23.446Z,19.50
2023-05-25T21:24:25.301Z,21.00
2023-05-25T21:27:27.415Z,21.30
2023-05-25T21:30:29.175Z,19.40
2023-05-25T21:33:35.052Z,21.70
2023-05-25T21:36:37.035Z,21.00
2023-05-25T21:39:38.940Z,22.00
2023-05-25T21:42:40.700Z,20.70
2023-05-25T21:45:42.602Z,24.00
2023-05-25T21:48:44.443Z,17.30
2023-05-25T21:51:46.217Z,23.50
2023-05-25T21:54:48.146Z,20.00
2023-05-25T21:57:49.914Z,23.30
2023-05-25T22:00:51.995Z,19.10
2023-05-25T22:03:53.742Z,19.60
2023-05-25T22:06:56.294Z,22.50
2023-05-25T22:09:58.137Z,20.50
2023-05-25T22:13:01.334Z,22.00
2023-05-25T22:16:03.009Z,25.00
2023-05-25T22:19:04.775Z,20.80
2023-05-25T22:22:06.609Z,23.00
2023-05-25T22:25:08.590Z,25.00
2023-05-25T22:28:10.488Z,26.50
2023-05-25T22:31:12.219Z,23.00
2023-05-25T22:34:13.981Z,22.70
2023-05-25T22:37:16.777Z,22.60
2023-05-25T22:40:18.611Z,22.10
2023-05-25T22:43:20.313Z,20.30
2023-05-25T22:46:22.640Z,21.60
2023-05-25T22:49:24.467Z,22.30
2023-05-25T22:52:26.177Z,23.20
2023-05-25T22:55:27.984Z,22.90
2023-05-25T22:58:29.697Z,26.60
2023-05-25T23:01:31.478Z,22.50
2023-05-25T23:04:36.350Z,25.10
2023-05-25T23:07:38.190Z,20.60
2023-05-25T23:10:40.032Z,21.60
2023-05-25T23:13:42.186Z,19.30
2023-05-25T23:16:47.793Z,22.10
2023-05-25T23:19:49.637Z,27.10
2023-05-25T23:22:51.388Z,19.80
2023-05-25T23:25:53.319Z,20.90
2023-05-25T23:28:55.228Z,21.10
2023-05-25T23:31:58.198Z,22.00
2023-05-25T23:35:00.172Z,21.90
2023-05-25T23:38:02.018Z,20.80
2023-05-25T23:41:03.968Z,20.30
2023-05-25T23:44:05.864Z,21.40
2023-05-25T23:47:07.843Z,21.60
2023-05-25T23:50:10.141Z,20.60
2023-05-25T23:53:11.982Z,22.20
2023-05-25T23:56:13.802Z,22.80
2023-05-25T23:59:15.795Z,27.10
